sensor_id;sensor_type;location;lat;lon;timestamp;P1;durP1;ratioP1;P2;durP2;ratioP2
10114;SDS011;5097;43.260;27.812;2023-01-01T00:01:56;9.03;;;8.03;;
10114;SDS011;5097;43.260;27.812;2023-01-01T00:04:40;11.20;;;8.30;;
10114;SDS011;5097;43.260;27.812;2023-01-01T00:07:25;11.23;;;9.03;;
10114;SDS011;5097;43.260;27.812;2023-01-01T00:10:09;11.43;;;9.23;;
10114;SDS011;5097;43.260;27.812;2023-01-01T00:13:12;12.27;;;8.53;;
10114;SDS011;5097;43.260;27.812;2023-01-01T00:16:02;17.20;;;12.87;;
10114;SDS011;5097;43.260;27.812;2023-01-01T00:18:46;10.43;;;8.80;;
10114;SDS011;5097;43.260;27.812;2023-01-01T00:21:30;9.13;;;8.20;;
10114;SDS011;5097;43.260;27.812;2023-01-01T00:24:15;10.40;;;8.63;;
10114;SDS011;5097;43.260;27.812;2023-01-01T00:26:59;12.17;;;8.50;;
10114;SDS011;5097;43.260;27.812;2023-01-01T00:29:43;10.97;;;7.87;;
10114;SDS011;5097;43.260;27.812;2023-01-01T00:32:27;14.33;;;8.60;;
10114;SDS011;5097;43.260;27.812;2023-01-01T00:35:11;9.67;;;7.57;;
10114;SDS011;5097;43.260;27.812;2023-01-01T00:37:54;8.23;;;6.83;;
10114;SDS011;5097;43.260;27.812;2023-01-01T00:40:40;9.20;;;8.20;;
10114;SDS011;5097;43.260;27.812;2023-01-01T00:43:23;7.77;;;7.07;;
10114;SDS011;5097;43.260;27.812;2023-01-01T00:46:07;8.13;;;7.37;;
10114;SDS011;5097;43.260;27.812;2023-01-01T00:48:52;8.80;;;7.90;;
10114;SDS011;5097;43.260;27.812;2023-01-01T00:51:36;11.13;;;8.53;;
10114;SDS011;5097;43.260;27.812;2023-01-01T00:54:20;11.23;;;8.67;;
10114;SDS011;5097;43.260;27.812;2023-01-01T00:57:05;8.80;;;7.47;;
10114;SDS011;5097;43.260;27.812;2023-01-01T00:59:49;9.90;;;7.67;;
10114;SDS011;5097;43.260;27.812;2023-01-01T01:02:33;8.50;;;6.97;;
10114;SDS011;5097;43.260;27.812;2023-01-01T01:05:17;9.43;;;7.70;;
10114;SDS011;5097;43.260;27.812;2023-01-01T01:08:01;8.83;;;7.93;;
10114;SDS011;5097;43.260;27.812;2023-01-01T01:10:45;12.23;;;8.13;;
10114;SDS011;5097;43.260;27.812;2023-01-01T01:13:30;10.70;;;8.33;;
10114;SDS011;5097;43.260;27.812;2023-01-01T01:16:15;9.00;;;7.67;;
10114;SDS011;5097;43.260;27.812;2023-01-01T01:19:03;10.33;;;8.07;;
10114;SDS011;5097;43.260;27.812;2023-01-01T01:21:48;8.97;;;7.73;;
10114;SDS011;5097;43.260;27.812;2023-01-01T01:24:33;10.97;;;8.73;;
10114;SDS011;5097;43.260;27.812;2023-01-01T01:27:17;11.13;;;8.57;;
10114;SDS011;5097;43.260;27.812;2023-01-01T01:30:02;9.87;;;8.13;;
10114;SDS011;5097;43.260;27.812;2023-01-01T01:32:46;9.23;;;8.20;;
10114;SDS011;5097;43.260;27.812;2023-01-01T01:35:30;9.80;;;8.27;;
10114;SDS011;5097;43.260;27.812;2023-01-01T01:38:15;11.37;;;8.70;;
10114;SDS011;5097;43.260;27.812;2023-01-01T01:40:59;9.40;;;8.20;;
10114;SDS011;5097;43.260;27.812;2023-01-01T01:43:45;10.27;;;8.63;;
10114;SDS011;5097;43.260;27.812;2023-01-01T01:46:35;10.80;;;8.60;;
10114;SDS011;5097;43.260;27.812;2023-01-01T01:49:25;10.90;;;8.30;;
10114;SDS011;5097;43.260;27.812;2023-01-01T01:52:11;12.30;;;9.00;;
10114;SDS011;5097;43.260;27.812;2023-01-01T01:54:55;10.67;;;8.80;;
10114;SDS011;5097;43.260;27.812;2023-01-01T01:57:40;10.47;;;9.10;;
10114;SDS011;5097;43.260;27.812;2023-01-01T02:00:24;9.07;;;8.13;;
10114;SDS011;5097;43.260;27.812;2023-01-01T02:03:10;10.03;;;8.77;;
10114;SDS011;5097;43.260;27.812;2023-01-01T02:05:58;9.87;;;8.47;;
10114;SDS011;5097;43.260;27.812;2023-01-01T02:08:44;9.17;;;8.27;;
10114;SDS011;5097;43.260;27.812;2023-01-01T02:11:29;12.93;;;8.33;;
10114;SDS011;5097;43.260;27.812;2023-01-01T02:14:13;10.00;;;7.53;;
10114;SDS011;5097;43.260;27.812;2023-01-01T02:16:59;12.53;;;7.50;;
10114;SDS011;5097;43.260;27.812;2023-01-01T02:19:54;9.33;;;7.93;;
10114;SDS011;5097;43.260;27.812;2023-01-01T02:23:04;12.43;;;8.93;;
10114;SDS011;5097;43.260;27.812;2023-01-01T02:26:27;8.57;;;7.33;;
10114;SDS011;5097;43.260;27.812;2023-01-01T02:29:25;9.27;;;7.93;;
10114;SDS011;5097;43.260;27.812;2023-01-01T02:32:16;9.40;;;7.87;;
10114;SDS011;5097;43.260;27.812;2023-01-01T02:35:04;8.00;;;7.20;;
10114;SDS011;5097;43.260;27.812;2023-01-01T02:38:12;10.53;;;7.10;;
10114;SDS011;5097;43.260;27.812;2023-01-01T02:41:00;10.00;;;7.80;;
10114;SDS011;5097;43.260;27.812;2023-01-01T02:43:50;10.10;;;8.13;;
10114;SDS011;5097;43.260;27.812;2023-01-01T02:46:35;9.20;;;7.10;;
10114;SDS011;5097;43.260;27.812;2023-01-01T02:49:19;8.40;;;7.53;;
10114;SDS011;5097;43.260;27.812;2023-01-01T02:52:04;12.07;;;7.90;;
10114;SDS011;5097;43.260;27.812;2023-01-01T02:54:52;9.97;;;7.43;;
10114;SDS011;5097;43.260;27.812;2023-01-01T02:57:45;9.27;;;8.00;;
10114;SDS011;5097;43.260;27.812;2023-01-01T03:00:35;8.53;;;7.73;;
10114;SDS011;5097;43.260;27.812;2023-01-01T03:03:24;8.97;;;7.20;;
10114;SDS011;5097;43.260;27.812;2023-01-01T03:06:13;8.07;;;7.27;;
10114;SDS011;5097;43.260;27.812;2023-01-01T03:09:09;9.37;;;7.53;;
10114;SDS011;5097;43.260;27.812;2023-01-01T03:12:00;7.70;;;7.00;;
10114;SDS011;5097;43.260;27.812;2023-01-01T03:14:52;7.37;;;6.50;;
10114;SDS011;5097;43.260;27.812;2023-01-01T03:17:42;7.90;;;7.00;;
10114;SDS011;5097;43.260;27.812;2023-01-01T03:20:34;8.53;;;6.73;;
10114;SDS011;5097;43.260;27.812;2023-01-01T03:23:24;7.43;;;6.53;;
10114;SDS011;5097;43.260;27.812;2023-01-01T03:26:12;8.40;;;6.80;;
10114;SDS011;5097;43.260;27.812;2023-01-01T03:28:58;8.77;;;6.30;;
10114;SDS011;5097;43.260;27.812;2023-01-01T03:31:46;8.70;;;7.53;;
10114;SDS011;5097;43.260;27.812;2023-01-01T03:34:34;9.43;;;6.97;;
10114;SDS011;5097;43.260;27.812;2023-01-01T03:37:26;8.93;;;7.60;;
10114;SDS011;5097;43.260;27.812;2023-01-01T03:40:12;8.77;;;7.43;;
10114;SDS011;5097;43.260;27.812;2023-01-01T03:42:59;8.73;;;7.67;;
10114;SDS011;5097;43.260;27.812;2023-01-01T03:45:48;8.70;;;7.60;;
10114;SDS011;5097;43.260;27.812;2023-01-01T03:48:34;8.70;;;7.03;;
10114;SDS011;5097;43.260;27.812;2023-01-01T03:51:55;7.60;;;6.77;;
10114;SDS011;5097;43.260;27.812;2023-01-01T03:54:48;9.17;;;7.20;;
10114;SDS011;5097;43.260;27.812;2023-01-01T03:57:42;9.80;;;7.40;;
10114;SDS011;5097;43.260;27.812;2023-01-01T04:00:30;8.00;;;7.20;;
10114;SDS011;5097;43.260;27.812;2023-01-01T04:03:17;7.57;;;6.50;;
10114;SDS011;5097;43.260;27.812;2023-01-01T04:06:05;7.43;;;6.73;;
10114;SDS011;5097;43.260;27.812;2023-01-01T04:08:51;7.60;;;6.33;;
10114;SDS011;5097;43.260;27.812;2023-01-01T04:11:40;6.73;;;6.03;;
10114;SDS011;5097;43.260;27.812;2023-01-01T04:14:46;7.07;;;6.33;;
10114;SDS011;5097;43.260;27.812;2023-01-01T04:17:29;8.30;;;6.80;;
10114;SDS011;5097;43.260;27.812;2023-01-01T04:20:13;8.30;;;6.80;;
10114;SDS011;5097;43.260;27.812;2023-01-01T04:22:58;7.10;;;6.37;;
10114;SDS011;5097;43.260;27.812;2023-01-01T04:25:43;6.73;;;6.10;;
10114;SDS011;5097;43.260;27.812;2023-01-01T04:28:28;6.93;;;5.97;;
10114;SDS011;5097;43.260;27.812;2023-01-01T04:31:12;6.83;;;6.13;;
10114;SDS011;5097;43.260;27.812;2023-01-01T04:33:56;7.30;;;6.50;;
10114;SDS011;5097;43.260;27.812;2023-01-01T04:36:40;8.23;;;6.17;;
10114;SDS011;5097;43.260;27.812;2023-01-01T04:39:24;8.53;;;7.30;;
10114;SDS011;5097;43.260;27.812;2023-01-01T04:42:08;9.20;;;6.93;;
10114;SDS011;5097;43.260;27.812;2023-01-01T04:44:53;8.73;;;7.00;;
10114;SDS011;5097;43.260;27.812;2023-01-01T04:47:37;7.10;;;6.40;;
10114;SDS011;5097;43.260;27.812;2023-01-01T04:50:21;8.90;;;5.90;;
10114;SDS011;5097;43.260;27.812;2023-01-01T04:53:04;6.20;;;5.70;;
10114;SDS011;5097;43.260;27.812;2023-01-01T04:55:48;6.67;;;5.93;;
10114;SDS011;5097;43.260;27.812;2023-01-01T04:58:32;7.37;;;6.13;;
10114;SDS011;5097;43.260;27.812;2023-01-01T05:01:19;6.63;;;5.47;;
10114;SDS011;5097;43.260;27.812;2023-01-01T05:04:04;14.50;;;10.60;;
10114;SDS011;5097;43.260;27.812;2023-01-01T05:06:48;8.00;;;6.87;;
10114;SDS011;5097;43.260;27.812;2023-01-01T05:09:32;10.23;;;8.07;;
10114;SDS011;5097;43.260;27.812;2023-01-01T05:12:16;6.93;;;6.23;;
10114;SDS011;5097;43.260;27.812;2023-01-01T05:14:59;11.63;;;8.97;;
10114;SDS011;5097;43.260;27.812;2023-01-01T05:17:46;19.23;;;13.97;;
10114;SDS011;5097;43.260;27.812;2023-01-01T05:20:30;13.70;;;10.50;;
10114;SDS011;5097;43.260;27.812;2023-01-01T05:23:14;7.37;;;6.67;;
10114;SDS011;5097;43.260;27.812;2023-01-01T05:25:58;11.00;;;9.17;;
10114;SDS011;5097;43.260;27.812;2023-01-01T05:28:41;8.60;;;7.10;;
10114;SDS011;5097;43.260;27.812;2023-01-01T05:31:26;12.77;;;10.37;;
10114;SDS011;5097;43.260;27.812;2023-01-01T05:34:12;8.77;;;7.97;;
10114;SDS011;5097;43.260;27.812;2023-01-01T05:36:56;7.77;;;7.07;;
10114;SDS011;5097;43.260;27.812;2023-01-01T05:39:40;14.43;;;10.27;;
10114;SDS011;5097;43.260;27.812;2023-01-01T05:42:24;10.10;;;8.53;;
10114;SDS011;5097;43.260;27.812;2023-01-01T05:45:08;8.67;;;7.80;;
10114;SDS011;5097;43.260;27.812;2023-01-01T05:47:53;10.87;;;8.80;;
10114;SDS011;5097;43.260;27.812;2023-01-01T05:50:39;9.13;;;7.40;;
10114;SDS011;5097;43.260;27.812;2023-01-01T05:53:22;7.87;;;7.07;;
10114;SDS011;5097;43.260;27.812;2023-01-01T05:56:06;7.60;;;6.80;;
10114;SDS011;5097;43.260;27.812;2023-01-01T05:58:50;12.13;;;7.73;;
10114;SDS011;5097;43.260;27.812;2023-01-01T06:01:34;8.93;;;7.53;;
10114;SDS011;5097;43.260;27.812;2023-01-01T06:04:26;9.40;;;7.93;;
10114;SDS011;5097;43.260;27.812;2023-01-01T06:07:11;9.57;;;7.40;;
10114;SDS011;5097;43.260;27.812;2023-01-01T06:09:55;8.17;;;6.80;;
10114;SDS011;5097;43.260;27.812;2023-01-01T06:12:39;10.17;;;8.17;;
10114;SDS011;5097;43.260;27.812;2023-01-01T06:15:23;12.87;;;11.50;;
10114;SDS011;5097;43.260;27.812;2023-01-01T06:18:07;10.40;;;7.87;;
10114;SDS011;5097;43.260;27.812;2023-01-01T06:20:51;13.17;;;11.87;;
10114;SDS011;5097;43.260;27.812;2023-01-01T06:23:36;11.73;;;9.50;;
10114;SDS011;5097;43.260;27.812;2023-01-01T06:26:21;7.93;;;7.23;;
10114;SDS011;5097;43.260;27.812;2023-01-01T06:29:06;8.40;;;7.60;;
10114;SDS011;5097;43.260;27.812;2023-01-01T06:31:49;14.67;;;10.00;;
10114;SDS011;5097;43.260;27.812;2023-01-01T06:34:33;8.07;;;7.27;;
10114;SDS011;5097;43.260;27.812;2023-01-01T06:37:17;14.07;;;9.80;;
10114;SDS011;5097;43.260;27.812;2023-01-01T06:40:03;7.93;;;7.13;;
10114;SDS011;5097;43.260;27.812;2023-01-01T06:42:47;7.60;;;6.90;;
10114;SDS011;5097;43.260;27.812;2023-01-01T06:45:31;9.73;;;7.67;;
10114;SDS011;5097;43.260;27.812;2023-01-01T06:48:15;7.10;;;6.40;;
10114;SDS011;5097;43.260;27.812;2023-01-01T06:51:03;9.50;;;8.20;;
10114;SDS011;5097;43.260;27.812;2023-01-01T06:53:48;6.60;;;6.00;;
10114;SDS011;5097;43.260;27.812;2023-01-01T06:56:34;7.33;;;6.60;;
10114;SDS011;5097;43.260;27.812;2023-01-01T06:59:20;11.43;;;8.67;;
10114;SDS011;5097;43.260;27.812;2023-01-01T07:02:04;55.97;;;36.67;;
10114;SDS011;5097;43.260;27.812;2023-01-01T07:04:48;10.03;;;8.33;;
10114;SDS011;5097;43.260;27.812;2023-01-01T07:07:31;6.73;;;6.13;;
10114;SDS011;5097;43.260;27.812;2023-01-01T07:10:17;7.53;;;6.53;;
10114;SDS011;5097;43.260;27.812;2023-01-01T07:13:02;8.10;;;6.07;;
10114;SDS011;5097;43.260;27.812;2023-01-01T07:15:46;7.13;;;5.97;;
10114;SDS011;5097;43.260;27.812;2023-01-01T07:18:32;13.23;;;11.27;;
10114;SDS011;5097;43.260;27.812;2023-01-01T07:21:24;11.90;;;10.60;;
10114;SDS011;5097;43.260;27.812;2023-01-01T07:24:12;12.90;;;10.80;;
10114;SDS011;5097;43.260;27.812;2023-01-01T07:26:57;11.47;;;8.57;;
10114;SDS011;5097;43.260;27.812;2023-01-01T07:29:42;11.47;;;8.90;;
10114;SDS011;5097;43.260;27.812;2023-01-01T07:32:26;10.27;;;8.87;;
10114;SDS011;5097;43.260;27.812;2023-01-01T07:35:10;11.57;;;9.20;;
10114;SDS011;5097;43.260;27.812;2023-01-01T07:37:55;15.40;;;10.17;;
10114;SDS011;5097;43.260;27.812;2023-01-01T07:40:39;15.10;;;10.83;;
10114;SDS011;5097;43.260;27.812;2023-01-01T07:43:23;13.40;;;11.33;;
10114;SDS011;5097;43.260;27.812;2023-01-01T07:46:10;24.23;;;17.57;;
10114;SDS011;5097;43.260;27.812;2023-01-01T07:48:57;25.00;;;17.60;;
10114;SDS011;5097;43.260;27.812;2023-01-01T07:51:41;21.27;;;16.67;;
10114;SDS011;5097;43.260;27.812;2023-01-01T07:54:25;19.53;;;15.83;;
10114;SDS011;5097;43.260;27.812;2023-01-01T07:57:09;17.40;;;15.47;;
10114;SDS011;5097;43.260;27.812;2023-01-01T07:59:54;18.10;;;13.33;;
10114;SDS011;5097;43.260;27.812;2023-01-01T08:02:39;14.13;;;12.53;;
10114;SDS011;5097;43.260;27.812;2023-01-01T08:05:24;15.90;;;13.70;;
10114;SDS011;5097;43.260;27.812;2023-01-01T08:08:08;14.13;;;12.07;;
10114;SDS011;5097;43.260;27.812;2023-01-01T08:10:52;13.93;;;12.40;;
10114;SDS011;5097;43.260;27.812;2023-01-01T08:13:44;19.27;;;11.13;;
10114;SDS011;5097;43.260;27.812;2023-01-01T08:16:28;12.47;;;9.97;;
10114;SDS011;5097;43.260;27.812;2023-01-01T08:19:14;12.50;;;10.60;;
10114;SDS011;5097;43.260;27.812;2023-01-01T08:21:58;10.90;;;9.10;;
10114;SDS011;5097;43.260;27.812;2023-01-01T08:24:42;12.03;;;9.90;;
10114;SDS011;5097;43.260;27.812;2023-01-01T08:27:26;11.27;;;9.93;;
10114;SDS011;5097;43.260;27.812;2023-01-01T08:30:11;11.57;;;9.87;;
10114;SDS011;5097;43.260;27.812;2023-01-01T08:32:56;11.07;;;9.97;;
10114;SDS011;5097;43.260;27.812;2023-01-01T08:35:41;11.10;;;9.60;;
10114;SDS011;5097;43.260;27.812;2023-01-01T08:38:34;44.47;;;37.77;;
10114;SDS011;5097;43.260;27.812;2023-01-01T08:41:21;37.53;;;28.83;;
10114;SDS011;5097;43.260;27.812;2023-01-01T08:44:05;21.00;;;17.23;;
10114;SDS011;5097;43.260;27.812;2023-01-01T08:46:51;19.23;;;13.70;;
10114;SDS011;5097;43.260;27.812;2023-01-01T08:49:35;20.70;;;16.83;;
10114;SDS011;5097;43.260;27.812;2023-01-01T08:52:21;26.67;;;22.07;;
10114;SDS011;5097;43.260;27.812;2023-01-01T08:55:05;18.80;;;12.60;;
10114;SDS011;5097;43.260;27.812;2023-01-01T08:57:50;18.17;;;15.00;;
10114;SDS011;5097;43.260;27.812;2023-01-01T09:00:34;11.83;;;10.00;;
10114;SDS011;5097;43.260;27.812;2023-01-01T09:03:18;27.63;;;21.83;;
10114;SDS011;5097;43.260;27.812;2023-01-01T09:06:02;11.27;;;10.07;;
10114;SDS011;5097;43.260;27.812;2023-01-01T09:08:48;10.87;;;7.93;;
10114;SDS011;5097;43.260;27.812;2023-01-01T09:11:32;15.03;;;13.23;;
10114;SDS011;5097;43.260;27.812;2023-01-01T09:14:17;12.37;;;11.10;;
10114;SDS011;5097;43.260;27.812;2023-01-01T09:17:01;12.30;;;11.03;;
10114;SDS011;5097;43.260;27.812;2023-01-01T09:19:46;12.60;;;8.73;;
10114;SDS011;5097;43.260;27.812;2023-01-01T09:22:30;8.87;;;7.73;;
10114;SDS011;5097;43.260;27.812;2023-01-01T09:25:15;25.13;;;18.70;;
10114;SDS011;5097;43.260;27.812;2023-01-01T09:28:00;13.17;;;9.53;;
10114;SDS011;5097;43.260;27.812;2023-01-01T09:30:45;7.90;;;6.60;;
10114;SDS011;5097;43.260;27.812;2023-01-01T09:33:29;9.93;;;8.60;;
10114;SDS011;5097;43.260;27.812;2023-01-01T09:36:14;11.60;;;10.43;;
10114;SDS011;5097;43.260;27.812;2023-01-01T09:39:09;11.10;;;9.37;;
10114;SDS011;5097;43.260;27.812;2023-01-01T09:42:03;12.80;;;10.23;;
10114;SDS011;5097;43.260;27.812;2023-01-01T09:45:01;16.87;;;14.87;;
10114;SDS011;5097;43.260;27.812;2023-01-01T09:47:58;48.63;;;35.83;;
10114;SDS011;5097;43.260;27.812;2023-01-01T09:50:47;20.97;;;16.93;;
10114;SDS011;5097;43.260;27.812;2023-01-01T09:53:33;26.70;;;16.90;;
10114;SDS011;5097;43.260;27.812;2023-01-01T09:56:23;23.23;;;17.03;;
10114;SDS011;5097;43.260;27.812;2023-01-01T09:59:10;20.77;;;15.90;;
10114;SDS011;5097;43.260;27.812;2023-01-01T10:01:56;21.00;;;15.93;;
10114;SDS011;5097;43.260;27.812;2023-01-01T10:04:48;20.50;;;13.57;;
10114;SDS011;5097;43.260;27.812;2023-01-01T10:07:40;26.70;;;14.90;;
10114;SDS011;5097;43.260;27.812;2023-01-01T10:10:34;18.33;;;13.97;;
10114;SDS011;5097;43.260;27.812;2023-01-01T10:13:22;16.23;;;11.97;;
10114;SDS011;5097;43.260;27.812;2023-01-01T10:16:13;17.73;;;12.77;;
10114;SDS011;5097;43.260;27.812;2023-01-01T10:19:11;17.33;;;12.33;;
10114;SDS011;5097;43.260;27.812;2023-01-01T10:22:05;18.00;;;12.10;;
10114;SDS011;5097;43.260;27.812;2023-01-01T10:24:54;14.10;;;12.07;;
10114;SDS011;5097;43.260;27.812;2023-01-01T10:27:44;14.73;;;11.33;;
10114;SDS011;5097;43.260;27.812;2023-01-01T10:30:40;15.53;;;12.07;;
10114;SDS011;5097;43.260;27.812;2023-01-01T10:33:26;15.33;;;11.03;;
10114;SDS011;5097;43.260;27.812;2023-01-01T10:36:12;11.27;;;9.80;;
10114;SDS011;5097;43.260;27.812;2023-01-01T10:38:59;11.13;;;10.03;;
10114;SDS011;5097;43.260;27.812;2023-01-01T10:41:43;13.00;;;10.10;;
10114;SDS011;5097;43.260;27.812;2023-01-01T10:44:28;11.50;;;9.27;;
10114;SDS011;5097;43.260;27.812;2023-01-01T10:47:24;15.73;;;9.73;;
10114;SDS011;5097;43.260;27.812;2023-01-01T10:50:11;13.60;;;10.90;;
10114;SDS011;5097;43.260;27.812;2023-01-01T10:52:55;18.60;;;10.70;;
10114;SDS011;5097;43.260;27.812;2023-01-01T10:55:39;15.43;;;11.47;;
10114;SDS011;5097;43.260;27.812;2023-01-01T10:58:24;13.43;;;8.53;;
10114;SDS011;5097;43.260;27.812;2023-01-01T11:01:11;12.10;;;9.30;;
10114;SDS011;5097;43.260;27.812;2023-01-01T11:04:04;14.70;;;9.60;;
10114;SDS011;5097;43.260;27.812;2023-01-01T11:07:03;10.43;;;8.23;;
10114;SDS011;5097;43.260;27.812;2023-01-01T11:09:49;9.80;;;8.07;;
10114;SDS011;5097;43.260;27.812;2023-01-01T11:12:45;10.53;;;8.57;;
10114;SDS011;5097;43.260;27.812;2023-01-01T11:15:47;11.47;;;9.03;;
10114;SDS011;5097;43.260;27.812;2023-01-01T11:18:31;13.87;;;9.97;;
10114;SDS011;5097;43.260;27.812;2023-01-01T11:21:18;12.30;;;10.50;;
10114;SDS011;5097;43.260;27.812;2023-01-01T11:24:13;11.87;;;10.10;;
10114;SDS011;5097;43.260;27.812;2023-01-01T11:27:11;11.47;;;9.93;;
10114;SDS011;5097;43.260;27.812;2023-01-01T11:30:12;12.77;;;8.82;;
10114;SDS011;5097;43.260;27.812;2023-01-01T11:33:03;10.65;;;8.48;;
10114;SDS011;5097;43.260;27.812;2023-01-01T11:35:48;10.80;;;9.70;;
10114;SDS011;5097;43.260;27.812;2023-01-01T11:38:35;11.45;;;8.65;;
10114;SDS011;5097;43.260;27.812;2023-01-01T11:41:20;9.82;;;7.82;;
10114;SDS011;5097;43.260;27.812;2023-01-01T11:44:04;9.63;;;8.52;;
10114;SDS011;5097;43.260;27.812;2023-01-01T11:46:48;11.77;;;8.95;;
10114;SDS011;5097;43.260;27.812;2023-01-01T11:49:32;9.68;;;8.63;;
10114;SDS011;5097;43.260;27.812;2023-01-01T11:52:25;9.25;;;8.35;;
10114;SDS011;5097;43.260;27.812;2023-01-01T11:55:17;11.02;;;8.00;;
10114;SDS011;5097;43.260;27.812;2023-01-01T11:58:07;9.38;;;7.70;;
10114;SDS011;5097;43.260;27.812;2023-01-01T12:01:01;10.93;;;8.10;;
10114;SDS011;5097;43.260;27.812;2023-01-01T12:03:52;7.85;;;6.68;;
10114;SDS011;5097;43.260;27.812;2023-01-01T12:06:40;8.98;;;6.38;;
10114;SDS011;5097;43.260;27.812;2023-01-01T12:09:32;10.43;;;7.75;;
10114;SDS011;5097;43.260;27.812;2023-01-01T12:12:22;5.97;;;5.47;;
10114;SDS011;5097;43.260;27.812;2023-01-01T12:15:15;7.97;;;6.22;;
10114;SDS011;5097;43.260;27.812;2023-01-01T12:18:05;6.53;;;5.72;;
10114;SDS011;5097;43.260;27.812;2023-01-01T12:20:56;6.30;;;5.40;;
10114;SDS011;5097;43.260;27.812;2023-01-01T12:23:43;7.53;;;5.95;;
10114;SDS011;5097;43.260;27.812;2023-01-01T12:26:28;8.25;;;6.25;;
10114;SDS011;5097;43.260;27.812;2023-01-01T12:29:29;8.15;;;7.25;;
10114;SDS011;5097;43.260;27.812;2023-01-01T12:32:25;7.82;;;6.18;;
10114;SDS011;5097;43.260;27.812;2023-01-01T12:35:21;10.00;;;8.35;;
10114;SDS011;5097;43.260;27.812;2023-01-01T12:38:18;9.93;;;8.15;;
10114;SDS011;5097;43.260;27.812;2023-01-01T12:41:19;9.02;;;6.90;;
10114;SDS011;5097;43.260;27.812;2023-01-01T12:44:15;10.18;;;7.68;;
10114;SDS011;5097;43.260;27.812;2023-01-01T12:47:07;9.85;;;7.75;;
10114;SDS011;5097;43.260;27.812;2023-01-01T12:50:04;10.80;;;8.15;;
10114;SDS011;5097;43.260;27.812;2023-01-01T12:52:57;10.80;;;7.57;;
10114;SDS011;5097;43.260;27.812;2023-01-01T12:59:04;5.75;;;5.00;;
10114;SDS011;5097;43.260;27.812;2023-01-01T13:01:54;6.68;;;5.97;;
10114;SDS011;5097;43.260;27.812;2023-01-01T13:04:40;9.73;;;6.82;;
10114;SDS011;5097;43.260;27.812;2023-01-01T13:07:28;6.47;;;5.75;;
10114;SDS011;5097;43.260;27.812;2023-01-01T13:10:22;6.05;;;4.70;;
10114;SDS011;5097;43.260;27.812;2023-01-01T13:13:09;6.40;;;5.60;;
10114;SDS011;5097;43.260;27.812;2023-01-01T13:15:54;35.95;;;32.88;;
10114;SDS011;5097;43.260;27.812;2023-01-01T13:18:39;7.50;;;6.78;;
10114;SDS011;5097;43.260;27.812;2023-01-01T13:21:23;6.03;;;5.43;;
10114;SDS011;5097;43.260;27.812;2023-01-01T13:24:19;6.53;;;5.78;;
10114;SDS011;5097;43.260;27.812;2023-01-01T13:27:05;7.22;;;5.80;;
10114;SDS011;5097;43.260;27.812;2023-01-01T13:29:54;8.30;;;6.72;;
10114;SDS011;5097;43.260;27.812;2023-01-01T13:32:50;6.65;;;5.95;;
10114;SDS011;5097;43.260;27.812;2023-01-01T13:42:43;14.45;;;7.97;;
10114;SDS011;5097;43.260;27.812;2023-01-01T13:45:34;9.85;;;7.47;;
10114;SDS011;5097;43.260;27.812;2023-01-01T13:48:47;10.70;;;7.88;;
10114;SDS011;5097;43.260;27.812;2023-01-01T13:51:55;9.20;;;6.75;;
10114;SDS011;5097;43.260;27.812;2023-01-01T14:01:51;8.18;;;7.15;;
10114;SDS011;5097;43.260;27.812;2023-01-01T14:04:41;9.00;;;7.22;;
10114;SDS011;5097;43.260;27.812;2023-01-01T14:07:30;9.45;;;7.72;;
10114;SDS011;5097;43.260;27.812;2023-01-01T14:10:33;9.23;;;6.93;;
10114;SDS011;5097;43.260;27.812;2023-01-01T14:13:18;8.23;;;7.43;;
10114;SDS011;5097;43.260;27.812;2023-01-01T14:16:12;7.80;;;7.10;;
10114;SDS011;5097;43.260;27.812;2023-01-01T14:18:57;9.10;;;7.40;;
10114;SDS011;5097;43.260;27.812;2023-01-01T14:21:44;7.07;;;6.20;;
10114;SDS011;5097;43.260;27.812;2023-01-01T14:24:29;7.33;;;6.33;;
10114;SDS011;5097;43.260;27.812;2023-01-01T14:27:17;6.30;;;5.07;;
10114;SDS011;5097;43.260;27.812;2023-01-01T14:30:04;6.83;;;6.23;;
10114;SDS011;5097;43.260;27.812;2023-01-01T14:32:57;8.77;;;6.30;;
10114;SDS011;5097;43.260;27.812;2023-01-01T14:35:49;12.77;;;7.07;;
10114;SDS011;5097;43.260;27.812;2023-01-01T14:38:35;11.73;;;7.13;;
10114;SDS011;5097;43.260;27.812;2023-01-01T14:41:26;7.50;;;6.70;;
10114;SDS011;5097;43.260;27.812;2023-01-01T14:44:12;12.13;;;10.43;;
10114;SDS011;5097;43.260;27.812;2023-01-01T14:46:57;20.50;;;14.37;;
10114;SDS011;5097;43.260;27.812;2023-01-01T14:49:44;40.37;;;25.83;;
10114;SDS011;5097;43.260;27.812;2023-01-01T14:52:29;20.27;;;11.63;;
10114;SDS011;5097;43.260;27.812;2023-01-01T14:55:17;15.93;;;10.70;;
10114;SDS011;5097;43.260;27.812;2023-01-01T14:58:02;32.53;;;20.83;;
10114;SDS011;5097;43.260;27.812;2023-01-01T15:00:46;27.57;;;17.80;;
10114;SDS011;5097;43.260;27.812;2023-01-01T15:03:31;39.70;;;28.73;;
10114;SDS011;5097;43.260;27.812;2023-01-01T15:06:16;28.97;;;19.90;;
10114;SDS011;5097;43.260;27.812;2023-01-01T15:09:00;40.37;;;28.77;;
10114;SDS011;5097;43.260;27.812;2023-01-01T15:11:44;21.20;;;12.20;;
10114;SDS011;5097;43.260;27.812;2023-01-01T15:14:30;47.23;;;29.37;;
10114;SDS011;5097;43.260;27.812;2023-01-01T15:17:19;73.43;;;54.23;;
10114;SDS011;5097;43.260;27.812;2023-01-01T15:20:05;79.60;;;61.30;;
10114;SDS011;5097;43.260;27.812;2023-01-01T15:23:03;71.63;;;50.67;;
10114;SDS011;5097;43.260;27.812;2023-01-01T15:25:51;40.90;;;30.07;;
10114;SDS011;5097;43.260;27.812;2023-01-01T15:28:35;21.07;;;16.23;;
10114;SDS011;5097;43.260;27.812;2023-01-01T15:31:20;24.53;;;16.40;;
10114;SDS011;5097;43.260;27.812;2023-01-01T15:34:05;20.47;;;15.87;;
10114;SDS011;5097;43.260;27.812;2023-01-01T15:37:07;23.30;;;18.73;;
10114;SDS011;5097;43.260;27.812;2023-01-01T15:39:58;29.67;;;19.27;;
10114;SDS011;5097;43.260;27.812;2023-01-01T15:43:09;32.57;;;23.33;;
10114;SDS011;5097;43.260;27.812;2023-01-01T15:45:56;27.53;;;20.37;;
10114;SDS011;5097;43.260;27.812;2023-01-01T15:48:45;48.40;;;28.00;;
10114;SDS011;5097;43.260;27.812;2023-01-01T15:51:31;50.77;;;34.23;;
10114;SDS011;5097;43.260;27.812;2023-01-01T15:54:15;47.50;;;31.50;;
10114;SDS011;5097;43.260;27.812;2023-01-01T15:57:00;26.13;;;19.73;;
10114;SDS011;5097;43.260;27.812;2023-01-01T15:59:45;17.30;;;13.87;;
10114;SDS011;5097;43.260;27.812;2023-01-01T16:02:33;13.90;;;10.30;;
10114;SDS011;5097;43.260;27.812;2023-01-01T16:05:19;12.47;;;10.03;;
10114;SDS011;5097;43.260;27.812;2023-01-01T16:08:06;22.00;;;14.77;;
10114;SDS011;5097;43.260;27.812;2023-01-01T16:10:51;21.77;;;17.77;;
10114;SDS011;5097;43.260;27.812;2023-01-01T16:13:35;20.40;;;16.17;;
10114;SDS011;5097;43.260;27.812;2023-01-01T16:16:23;20.97;;;15.40;;
10114;SDS011;5097;43.260;27.812;2023-01-01T16:19:12;21.07;;;16.60;;
10114;SDS011;5097;43.260;27.812;2023-01-01T16:21:58;26.80;;;21.10;;
10114;SDS011;5097;43.260;27.812;2023-01-01T16:24:42;36.40;;;24.80;;
10114;SDS011;5097;43.260;27.812;2023-01-01T16:27:29;39.43;;;23.20;;
10114;SDS011;5097;43.260;27.812;2023-01-01T16:30:13;18.53;;;15.10;;
10114;SDS011;5097;43.260;27.812;2023-01-01T16:32:57;18.87;;;12.80;;
10114;SDS011;5097;43.260;27.812;2023-01-01T16:35:43;22.23;;;14.43;;
10114;SDS011;5097;43.260;27.812;2023-01-01T16:38:27;13.30;;;10.77;;
10114;SDS011;5097;43.260;27.812;2023-01-01T16:41:12;19.67;;;15.90;;
10114;SDS011;5097;43.260;27.812;2023-01-01T16:43:57;22.53;;;16.93;;
10114;SDS011;5097;43.260;27.812;2023-01-01T16:46:41;36.63;;;23.63;;
10114;SDS011;5097;43.260;27.812;2023-01-01T16:49:25;41.50;;;29.20;;
10114;SDS011;5097;43.260;27.812;2023-01-01T16:52:10;26.17;;;14.30;;
10114;SDS011;5097;43.260;27.812;2023-01-01T16:54:54;20.40;;;12.53;;